createdAt,value
2018-09-21T00:01:58.133Z,86.20
2018-09-21T00:04:26.875Z,86.30
2018-09-21T00:06:55.831Z,86.40
2018-09-21T00:09:25.159Z,86.50
2018-09-21T00:11:54.187Z,86.60
2018-09-21T00:14:22.853Z,86.60
2018-09-21T00:16:51.536Z,86.50
2018-09-21T00:19:20.269Z,86.60
2018-09-21T00:21:48.924Z,86.80
2018-09-21T00:24:18.267Z,86.60
2018-09-21T00:26:47.591Z,86.80
2018-09-21T00:29:16.172Z,86.90
2018-09-21T00:31:45.649Z,87.10
2018-09-21T00:34:14.721Z,87.50
2018-09-21T00:36:43.612Z,87.10
2018-09-21T00:39:12.589Z,87.10
2018-09-21T00:41:41.207Z,87.10
2018-09-21T00:44:09.875Z,87.30
2018-09-21T00:46:38.512Z,87.30
2018-09-21T00:49:07.258Z,87.40
2018-09-21T00:51:35.997Z,87.10
2018-09-21T00:54:04.664Z,87.30
2018-09-21T00:56:33.289Z,87.10
2018-09-21T00:59:02.099Z,87.30
2018-09-21T01:01:30.795Z,87.30
2018-09-21T01:03:59.447Z,87.30
2018-09-21T01:06:28.093Z,87.40
2018-09-21T01:08:56.738Z,87.50
2018-09-21T01:11:26.286Z,87.50
2018-09-21T01:13:54.848Z,87.70
2018-09-21T01:16:23.522Z,87.80
2018-09-21T01:18:52.137Z,87.90
2018-09-21T01:21:20.832Z,87.60
2018-09-21T01:23:49.492Z,87.50
2018-09-21T01:26:18.118Z,87.50
2018-09-21T01:28:46.855Z,87.40
2018-09-21T01:31:15.652Z,87.20
2018-09-21T01:33:44.229Z,87.30
2018-09-21T01:36:12.963Z,87.70
2018-09-21T01:38:41.578Z,87.60
2018-09-21T01:41:10.243Z,87.60
2018-09-21T01:43:38.786Z,87.60
2018-09-21T01:46:07.515Z,87.60
2018-09-21T01:48:36.256Z,87.60
2018-09-21T01:51:04.935Z,87.60
2018-09-21T01:53:33.677Z,87.30
2018-09-21T01:56:02.417Z,87.30
2018-09-21T01:58:31.129Z,87.40
2018-09-21T02:00:59.790Z,87.50
2018-09-21T02:03:28.666Z,87.20
2018-09-21T02:05:58.184Z,87.40
2018-09-21T02:08:26.779Z,87.30
2018-09-21T02:10:55.480Z,87.40
2018-09-21T02:13:24.816Z,87.20
2018-09-21T02:15:53.576Z,87.10
2018-09-21T02:18:22.215Z,87.20
2018-09-21T02:20:50.854Z,87.30
2018-09-21T02:23:19.436Z,87.30
2018-09-21T02:25:48.116Z,87.40
2018-09-21T02:28:16.808Z,87.30
2018-09-21T02:30:45.412Z,87.30
2018-09-21T02:33:14.081Z,87.30
2018-09-21T02:35:42.679Z,87.50
2018-09-21T02:38:11.359Z,87.60
2018-09-21T02:40:40.122Z,87.50
2018-09-21T02:43:08.739Z,87.40
2018-09-21T02:45:37.318Z,87.50
2018-09-21T02:48:06.146Z,87.70
2018-09-21T02:50:34.712Z,87.50
2018-09-21T02:53:03.384Z,87.60
2018-09-21T02:55:32.089Z,87.60
2018-09-21T02:58:00.737Z,87.50
2018-09-21T03:00:29.471Z,87.50
2018-09-21T03:02:58.078Z,87.60
2018-09-21T03:05:26.788Z,87.40
2018-09-21T03:07:55.449Z,87.30
2018-09-21T03:10:24.115Z,87.30
2018-09-21T03:12:52.738Z,87.40
2018-09-21T03:15:21.423Z,87.40
2018-09-21T03:17:50.122Z,87.40
2018-09-21T03:20:18.946Z,87.30
2018-09-21T03:22:47.707Z,87.30
2018-09-21T03:25:16.272Z,87.40
2018-09-21T03:27:44.946Z,87.30
2018-09-21T03:30:13.634Z,87.20
2018-09-21T03:32:42.275Z,87.40
2018-09-21T03:35:10.957Z,87.50
2018-09-21T03:37:39.514Z,87.60
2018-09-21T03:40:08.182Z,87.70
2018-09-21T03:42:36.836Z,87.80
2018-09-21T03:45:05.887Z,87.80
2018-09-21T03:47:34.498Z,88.00
2018-09-21T03:50:03.078Z,87.40
2018-09-21T03:52:31.739Z,87.50
2018-09-21T03:55:00.510Z,87.40
2018-09-21T03:57:29.096Z,87.40
2018-09-21T03:59:57.673Z,87.40
2018-09-21T04:02:26.324Z,87.70
2018-09-21T04:04:55.035Z,87.70
2018-09-21T04:07:23.623Z,87.90
2018-09-21T04:09:52.261Z,88.30
2018-09-21T04:12:20.951Z,88.40
2018-09-21T04:14:49.689Z,88.40
2018-09-21T04:17:18.426Z,88.90
2018-09-21T04:19:47.581Z,88.50
2018-09-21T04:22:16.353Z,88.50
2018-09-21T04:24:45.208Z,88.50
2018-09-21T04:27:14.269Z,88.80
2018-09-21T04:29:43.233Z,88.90
2018-09-21T04:32:11.882Z,88.90
2018-09-21T04:34:40.519Z,88.90
2018-09-21T04:37:09.115Z,88.90
2018-09-21T04:39:37.725Z,89.10
2018-09-21T04:42:06.386Z,88.80
2018-09-21T04:44:36.132Z,88.80
2018-09-21T04:47:04.812Z,87.80
2018-09-21T04:49:34.278Z,87.30
2018-09-21T04:52:03.064Z,87.60
2018-09-21T04:54:32.475Z,88.10
2018-09-21T04:57:01.209Z,88.80
2018-09-21T04:59:29.840Z,89.20
2018-09-21T05:01:58.481Z,89.90
2018-09-21T05:04:27.208Z,90.40
2018-09-21T05:06:55.877Z,90.70
2018-09-21T05:09:24.527Z,91.00
2018-09-21T05:11:53.090Z,91.20
2018-09-21T05:14:21.860Z,91.70
2018-09-21T05:16:50.442Z,91.90
2018-09-21T05:19:19.105Z,92.10
2018-09-21T05:21:47.821Z,92.50
2018-09-21T05:24:16.517Z,92.70
2018-09-21T05:26:45.102Z,92.90
2018-09-21T05:29:13.733Z,93.00
2018-09-21T05:31:42.445Z,93.20
2018-09-21T05:34:11.128Z,93.40
2018-09-21T05:36:40.435Z,93.70
2018-09-21T05:39:12.754Z,93.90
2018-09-21T05:41:41.446Z,94.00
2018-09-21T05:44:11.205Z,94.50
2018-09-21T05:46:40.623Z,94.60
2018-09-21T05:49:10.037Z,95.00
2018-09-21T05:51:38.666Z,94.90
2018-09-21T05:54:07.257Z,94.80
2018-09-21T05:56:36.167Z,94.60
2018-09-21T05:59:04.808Z,94.60
2018-09-21T06:01:33.519Z,94.30
2018-09-21T06:04:02.126Z,94.30
2018-09-21T06:06:30.747Z,94.60
2018-09-21T06:08:59.345Z,94.70
2018-09-21T06:11:27.928Z,94.80
2018-09-21T06:13:56.683Z,94.90
2018-09-21T06:16:25.469Z,95.00
2018-09-21T06:18:54.116Z,95.20
2018-09-21T06:21:22.761Z,95.30
2018-09-21T06:23:51.433Z,95.50
2018-09-21T06:26:20.174Z,95.70
2018-09-21T06:28:49.103Z,95.80
2018-09-21T06:31:17.689Z,96.10
2018-09-21T06:33:46.448Z,96.10
2018-09-21T06:36:15.095Z,96.10
2018-09-21T06:38:43.762Z,95.70
2018-09-21T06:41:12.437Z,95.60
2018-09-21T06:43:41.833Z,95.00
2018-09-21T06:46:10.595Z,94.80
2018-09-21T06:48:39.268Z,94.60
2018-09-21T06:51:07.990Z,94.50
2018-09-21T06:53:36.706Z,94.80
2018-09-21T06:56:05.313Z,95.10
2018-09-21T06:58:33.902Z,95.40
2018-09-21T07:01:02.470Z,95.40
2018-09-21T07:03:31.053Z,95.50
2018-09-21T07:05:59.637Z,95.80
2018-09-21T07:08:28.303Z,95.80
2018-09-21T07:10:57.039Z,95.90
2018-09-21T07:13:25.673Z,95.40
2018-09-21T07:15:54.342Z,97.10
2018-09-21T07:18:22.985Z,97.30
2018-09-21T07:20:51.676Z,95.40
2018-09-21T07:23:20.237Z,94.40
2018-09-21T07:25:48.786Z,94.10
2018-09-21T07:28:17.352Z,94.50
2018-09-21T07:30:46.018Z,94.80
2018-09-21T07:33:14.626Z,94.90
2018-09-21T07:35:43.212Z,95.00
2018-09-21T07:38:14.055Z,95.10
2018-09-21T07:40:43.445Z,95.40
2018-09-21T07:43:13.585Z,95.70
2018-09-21T07:45:42.189Z,95.20
2018-09-21T07:48:10.846Z,94.60
2018-09-21T07:50:39.529Z,94.30
2018-09-21T07:53:08.337Z,93.80
2018-09-21T07:55:37.014Z,93.50
2018-09-21T07:58:05.732Z,93.20
2018-09-21T08:00:34.749Z,93.40
2018-09-21T08:03:03.364Z,93.80
2018-09-21T08:05:34.010Z,94.30
2018-09-21T08:08:04.174Z,94.10
2018-09-21T08:10:32.821Z,94.30
2018-09-21T08:13:02.103Z,94.40
2018-09-21T08:15:31.246Z,94.40
2018-09-21T08:17:59.961Z,94.10
2018-09-21T08:20:28.613Z,94.10
2018-09-21T08:22:57.398Z,93.70
2018-09-21T08:25:25.970Z,93.20
2018-09-21T08:27:54.500Z,93.20
2018-09-21T08:30:23.156Z,93.30
2018-09-21T08:32:51.804Z,93.10
2018-09-21T08:35:20.396Z,92.70
2018-09-21T08:37:49.075Z,92.30
2018-09-21T08:40:17.728Z,92.30
2018-09-21T08:42:46.383Z,91.90
2018-09-21T08:45:14.961Z,91.50
2018-09-21T08:47:43.565Z,91.60
2018-09-21T08:50:12.279Z,91.20
2018-09-21T08:52:40.846Z,91.50
2018-09-21T08:55:09.653Z,91.70
2018-09-21T08:57:38.273Z,91.50
2018-09-21T09:00:06.941Z,90.70
2018-09-21T09:02:35.646Z,90.80
2018-09-21T09:05:04.379Z,90.40
2018-09-21T09:07:33.721Z,90.00
2018-09-21T09:10:02.402Z,90.10
2018-09-21T09:12:31.042Z,90.30
2018-09-21T09:14:59.648Z,90.30
2018-09-21T09:17:28.360Z,90.40
2018-09-21T09:19:57.051Z,90.50
2018-09-21T09:22:25.621Z,90.00
2018-09-21T09:24:54.176Z,89.30
2018-09-21T09:27:22.971Z,88.80
2018-09-21T09:29:51.584Z,89.70
2018-09-21T09:32:20.161Z,88.70
2018-09-21T09:34:48.761Z,88.10
2018-09-21T09:37:17.369Z,89.80
2018-09-21T09:39:46.045Z,88.50
2018-09-21T09:42:15.511Z,90.10
2018-09-21T09:44:44.093Z,91.20
2018-09-21T09:47:12.820Z,90.50
2018-09-21T09:49:41.421Z,88.10
2018-09-21T09:52:10.068Z,86.00
2018-09-21T09:54:38.673Z,90.50
2018-09-21T09:57:07.044Z,87.30
2018-09-21T09:59:35.763Z,91.50
2018-09-21T10:02:04.385Z,93.60
2018-09-21T10:04:33.019Z,93.70
2018-09-21T10:07:02.308Z,87.70
2018-09-21T10:09:31.005Z,82.60
2018-09-21T10:11:59.615Z,82.20
2018-09-21T10:14:28.208Z,81.30
2018-09-21T10:17:03.523Z,81.30
2018-09-21T10:19:32.242Z,91.30
2018-09-21T10:22:00.950Z,93.30
2018-09-21T10:24:29.560Z,91.80
2018-09-21T10:26:58.190Z,91.00
2018-09-21T10:29:26.779Z,87.30
2018-09-21T10:31:55.462Z,78.10
2018-09-21T10:34:24.101Z,76.00
2018-09-21T10:36:52.666Z,75.80
2018-09-21T10:39:21.386Z,75.50
2018-09-21T10:41:50.093Z,73.10
2018-09-21T10:44:18.718Z,73.90
2018-09-21T10:46:47.462Z,73.90
2018-09-21T10:49:16.441Z,77.30
2018-09-21T10:51:45.117Z,81.20
2018-09-21T10:54:13.748Z,81.30
2018-09-21T10:56:42.321Z,73.50
2018-09-21T10:59:10.924Z,70.90
2018-09-21T11:01:39.560Z,71.00
2018-09-21T11:04:08.105Z,70.60
2018-09-21T11:06:37.059Z,71.70
2018-09-21T11:09:09.127Z,72.50
2018-09-21T11:11:37.865Z,70.20
2018-09-21T11:14:06.541Z,72.00
2018-09-21T11:16:35.164Z,67.60
2018-09-21T11:19:04.073Z,74.60
2018-09-21T11:21:32.704Z,81.70
2018-09-21T11:24:01.839Z,84.70
2018-09-21T11:26:31.209Z,83.00
2018-09-21T11:28:59.993Z,76.80
2018-09-21T11:31:28.574Z,66.80
2018-09-21T11:33:57.211Z,62.20
2018-09-21T11:36:25.901Z,59.80
2018-09-21T11:38:54.614Z,64.60
2018-09-21T11:41:23.133Z,74.30
2018-09-21T11:43:51.747Z,70.70
2018-09-21T11:46:20.480Z,63.20
2018-09-21T11:48:49.121Z,60.90
2018-09-21T11:51:17.999Z,58.90
2018-09-21T11:53:46.701Z,65.60
2018-09-21T11:56:16.064Z,57.90
2018-09-21T11:58:44.744Z,58.80
2018-09-21T12:01:14.307Z,60.40
2018-09-21T12:03:43.039Z,63.50
2018-09-21T12:06:12.288Z,59.40
2018-09-21T12:08:41.054Z,60.00
2018-09-21T12:11:09.593Z,62.40
2018-09-21T12:13:38.366Z,63.40
2018-09-21T12:16:07.021Z,57.80
2018-09-21T12:18:35.638Z,55.60
2018-09-21T12:21:04.265Z,55.80
2018-09-21T12:23:32.943Z,50.00
2018-09-21T12:26:02.411Z,47.30
2018-09-21T12:28:31.793Z,49.00
2018-09-21T12:31:00.437Z,58.20
2018-09-21T12:33:29.177Z,58.00
2018-09-21T12:35:58.133Z,49.20
2018-09-21T12:38:26.738Z,45.90
2018-09-21T12:40:55.432Z,53.90
2018-09-21T12:43:24.067Z,51.70
2018-09-21T12:45:52.855Z,46.00
2018-09-21T12:48:22.200Z,49.60
2018-09-21T12:50:50.965Z,51.70
2018-09-21T12:53:19.546Z,50.30
2018-09-21T12:55:48.261Z,43.60
2018-09-21T12:58:16.915Z,49.20
2018-09-21T13:00:52.525Z,48.00
2018-09-21T13:03:22.785Z,42.90
2018-09-21T13:05:55.254Z,47.70
2018-09-21T13:08:25.453Z,47.20
2018-09-21T13:10:54.298Z,46.00
2018-09-21T13:13:22.934Z,41.90
2018-09-21T13:15:52.189Z,41.40
2018-09-21T13:18:20.818Z,42.50
2018-09-21T13:20:49.356Z,45.70
2018-09-21T13:23:18.105Z,48.00
2018-09-21T13:25:46.769Z,50.40
2018-09-21T13:28:15.339Z,43.20
2018-09-21T13:30:43.978Z,42.10
2018-09-21T13:33:12.568Z,46.30
2018-09-21T13:35:41.198Z,48.40
2018-09-21T13:38:09.765Z,47.90
2018-09-21T13:40:38.328Z,43.80
2018-09-21T13:43:07.460Z,41.40
2018-09-21T13:45:36.131Z,40.60
2018-09-21T13:48:04.753Z,44.80
2018-09-21T13:50:33.345Z,43.00
2018-09-21T13:53:02.192Z,42.10
2018-09-21T13:55:30.910Z,41.00
2018-09-21T13:57:59.587Z,42.70
2018-09-21T14:00:28.238Z,41.10
2018-09-21T14:02:56.876Z,41.30
2018-09-21T14:05:26.081Z,40.50
2018-09-21T14:07:54.763Z,43.00
2018-09-21T14:10:23.594Z,41.00
2018-09-21T14:12:52.218Z,43.50
2018-09-21T14:15:20.861Z,41.30
2018-09-21T14:17:49.565Z,43.40
2018-09-21T14:20:18.241Z,42.80
2018-09-21T14:22:46.925Z,42.10
2018-09-21T14:25:15.623Z,44.70
2018-09-21T14:27:44.746Z,42.90
2018-09-21T14:30:13.449Z,41.00
2018-09-21T14:32:42.111Z,40.20
2018-09-21T14:35:10.672Z,40.60
2018-09-21T14:37:39.349Z,41.20
2018-09-21T14:40:07.953Z,41.90
2018-09-21T14:42:36.524Z,42.90
2018-09-21T14:45:05.867Z,42.20
2018-09-21T14:47:34.525Z,42.00
2018-09-21T14:50:03.254Z,41.90
2018-09-21T14:52:31.998Z,43.60
2018-09-21T14:55:00.580Z,43.90
2018-09-21T14:57:29.303Z,43.10
2018-09-21T14:59:57.984Z,45.50
2018-09-21T15:02:26.587Z,44.10
2018-09-21T15:04:55.183Z,46.10
2018-09-21T15:07:24.029Z,45.30
2018-09-21T15:09:52.640Z,42.40
2018-09-21T15:12:21.390Z,42.30
2018-09-21T15:14:50.109Z,42.40
2018-09-21T15:17:18.780Z,43.10
2018-09-21T15:19:47.380Z,43.90
2018-09-21T15:22:16.099Z,45.60
2018-09-21T15:24:44.932Z,45.20
2018-09-21T15:27:13.578Z,44.70
2018-09-21T15:29:42.213Z,43.40
2018-09-21T15:32:10.911Z,43.00
2018-09-21T15:34:40.130Z,42.70
2018-09-21T15:37:08.849Z,42.90
2018-09-21T15:39:37.485Z,43.30
2018-09-21T15:42:06.137Z,43.60
2018-09-21T15:44:34.823Z,43.60
2018-09-21T15:47:03.460Z,43.80
2018-09-21T15:49:32.108Z,43.50
2018-09-21T15:52:00.884Z,43.90
2018-09-21T15:54:29.465Z,44.30
2018-09-21T15:56:58.188Z,44.90
2018-09-21T15:59:26.999Z,45.00
2018-09-21T16:01:55.658Z,46.50
2018-09-21T16:04:24.889Z,46.70
2018-09-21T16:06:53.507Z,47.20
2018-09-21T16:09:22.192Z,47.40
2018-09-21T16:11:50.810Z,48.40
2018-09-21T16:14:19.495Z,48.40
2018-09-21T16:16:48.177Z,48.80
2018-09-21T16:19:16.799Z,49.10
2018-09-21T16:21:45.482Z,49.50
2018-09-21T16:24:14.151Z,50.40
2018-09-21T16:26:42.841Z,50.60
2018-09-21T16:29:12.069Z,52.20
2018-09-21T16:31:40.666Z,52.80
2018-09-21T16:34:09.290Z,53.40
2018-09-21T16:36:37.929Z,54.40
2018-09-21T16:39:09.148Z,55.00
2018-09-21T16:41:37.940Z,55.80
2018-09-21T16:44:06.673Z,56.20
2018-09-21T16:46:35.688Z,56.80
2018-09-21T16:49:04.351Z,57.30
2018-09-21T16:51:33.088Z,57.60
2018-09-21T16:54:01.718Z,59.00
2018-09-21T16:56:30.313Z,59.40
2018-09-21T16:58:58.969Z,60.00
2018-09-21T17:01:27.466Z,60.80
2018-09-21T17:03:56.036Z,61.40
2018-09-21T17:06:24.655Z,62.10
2018-09-21T17:08:54.138Z,62.00
2018-09-21T17:11:22.906Z,62.50
2018-09-21T17:13:51.468Z,63.20
2018-09-21T17:16:20.012Z,63.40
2018-09-21T17:18:48.653Z,64.20
2018-09-21T17:21:17.420Z,64.60
2018-09-21T17:23:46.124Z,65.10
2018-09-21T17:26:15.503Z,65.90
2018-09-21T17:28:44.237Z,66.80
2018-09-21T17:31:12.845Z,67.20
2018-09-21T17:33:41.479Z,67.40
2018-09-21T17:36:10.130Z,67.70
2018-09-21T17:38:38.772Z,68.00
2018-09-21T17:41:07.378Z,68.40
2018-09-21T17:43:36.152Z,68.80
2018-09-21T17:46:04.844Z,69.30
2018-09-21T17:48:33.472Z,69.70
2018-09-21T17:51:02.858Z,70.40
2018-09-21T17:53:31.561Z,70.90
2018-09-21T17:56:00.163Z,71.40
2018-09-21T17:58:28.972Z,71.90
2018-09-21T18:00:57.563Z,72.40
2018-09-21T18:03:27.010Z,73.50
2018-09-21T18:05:55.634Z,73.00
2018-09-21T18:08:24.316Z,72.50
2018-09-21T18:10:52.961Z,72.50
2018-09-21T18:13:22.677Z,73.00
2018-09-21T18:15:51.376Z,73.40
2018-09-21T18:18:20.154Z,74.20
2018-09-21T18:20:48.813Z,74.80
2018-09-21T18:23:17.412Z,75.40
2018-09-21T18:25:46.054Z,76.00
2018-09-21T18:28:14.673Z,76.80
2018-09-21T18:30:43.369Z,77.10
2018-09-21T18:33:12.088Z,77.80
2018-09-21T18:35:41.185Z,78.50
2018-09-21T18:38:09.853Z,79.40
2018-09-21T18:40:38.467Z,79.70
2018-09-21T18:43:07.157Z,80.70
2018-09-21T18:45:35.825Z,81.60
2018-09-21T18:48:04.565Z,81.90
2018-09-21T18:50:33.855Z,81.90
2018-09-21T18:53:03.128Z,82.10
2018-09-21T18:55:32.498Z,82.30
2018-09-21T18:58:01.882Z,83.20
2018-09-21T19:00:30.652Z,83.70
2018-09-21T19:02:59.795Z,84.60
2018-09-21T19:05:29.442Z,85.00
2018-09-21T19:07:58.655Z,85.60
2018-09-21T19:10:28.305Z,86.20
2018-09-21T19:12:57.501Z,86.90
2018-09-21T19:15:27.310Z,86.50
2018-09-21T19:17:56.287Z,86.10
2018-09-21T19:20:25.145Z,86.30
2018-09-21T19:22:58.153Z,86.60
2018-09-21T19:25:27.296Z,87.00
2018-09-21T19:27:56.476Z,87.50
2018-09-21T19:30:26.035Z,87.90
2018-09-21T19:32:56.304Z,88.40
2018-09-21T19:35:26.198Z,88.80
2018-09-21T19:37:55.038Z,88.60
2018-09-21T19:40:23.694Z,88.00
2018-09-21T19:42:52.573Z,88.10
2018-09-21T19:45:21.439Z,88.30
2018-09-21T19:47:50.111Z,88.70
2018-09-21T19:50:19.045Z,89.30
2018-09-21T19:52:47.776Z,89.60
2018-09-21T19:55:16.589Z,89.70
2018-09-21T19:57:45.300Z,89.70
2018-09-21T20:00:14.118Z,89.80
2018-09-21T20:02:43.007Z,90.00
2018-09-21T20:05:11.885Z,90.00
2018-09-21T20:07:40.684Z,90.20
2018-09-21T20:10:09.578Z,90.30
2018-09-21T20:12:39.042Z,90.40
2018-09-21T20:15:10.147Z,90.30
2018-09-21T20:17:39.524Z,90.20
2018-09-21T20:20:09.095Z,90.20
2018-09-21T20:22:37.971Z,90.20
2018-09-21T20:25:06.807Z,90.30
2018-09-21T20:27:35.719Z,90.60
2018-09-21T20:30:10.181Z,90.70
2018-09-21T20:32:44.425Z,90.80
2018-09-21T20:35:13.181Z,90.70
2018-09-21T20:37:42.424Z,90.60
2018-09-21T20:40:11.885Z,90.50
2018-09-21T20:42:40.765Z,90.30
2018-09-21T20:45:10.676Z,90.40
2018-09-21T20:47:39.496Z,90.60
2018-09-21T20:50:08.406Z,90.70
2018-09-21T20:52:37.138Z,90.90
2018-09-21T20:55:06.304Z,90.90
2018-09-21T20:57:35.195Z,90.80
2018-09-21T21:00:04.092Z,90.60
2018-09-21T21:02:33.071Z,90.30
2018-09-21T21:05:02.253Z,90.10
2018-09-21T21:07:31.098Z,90.10
2018-09-21T21:10:01.675Z,90.20
2018-09-21T21:12:30.421Z,90.10
2018-09-21T21:14:59.322Z,90.40
2018-09-21T21:17:28.686Z,90.60
2018-09-21T21:19:57.332Z,90.90
2018-09-21T21:22:26.117Z,91.10
2018-09-21T21:24:54.763Z,91.20
2018-09-21T21:27:23.435Z,91.30
2018-09-21T21:29:52.251Z,91.10
2018-09-21T21:32:21.024Z,90.50
2018-09-21T21:34:49.800Z,90.40
2018-09-21T21:37:18.680Z,90.10
2018-09-21T21:39:47.333Z,89.90
2018-09-21T21:42:16.418Z,89.70
2018-09-21T21:44:45.185Z,88.90
2018-09-21T21:47:14.519Z,89.10
2018-09-21T21:49:43.575Z,88.80
2018-09-21T21:52:12.261Z,88.70
2018-09-21T21:54:42.141Z,88.90
2018-09-21T21:57:10.835Z,87.70
2018-09-21T21:59:39.618Z,87.60
2018-09-21T22:02:11.803Z,88.10
2018-09-21T22:04:41.642Z,86.90
2018-09-21T22:07:11.409Z,87.50
2018-09-21T22:09:41.427Z,86.60
2018-09-21T22:12:15.975Z,86.80
2018-09-21T22:14:44.652Z,86.90
2018-09-21T22:17:13.297Z,85.60
2018-09-21T22:19:42.139Z,85.40
2018-09-21T22:22:10.805Z,85.60
2018-09-21T22:24:39.507Z,85.30
2018-09-21T22:27:08.233Z,85.10
2018-09-21T22:29:36.958Z,85.40
2018-09-21T22:32:06.684Z,85.20
2018-09-21T22:34:35.704Z,84.90
2018-09-21T22:37:04.438Z,85.20
2018-09-21T22:39:33.258Z,84.60
2018-09-21T22:42:06.979Z,84.50
2018-09-21T22:44:35.745Z,84.70
2018-09-21T22:47:04.486Z,84.30
2018-09-21T22:49:33.204Z,84.40
2018-09-21T22:52:02.377Z,83.60
2018-09-21T22:54:31.018Z,83.50
2018-09-21T22:56:59.692Z,83.90
2018-09-21T22:59:28.461Z,83.60
2018-09-21T23:01:57.192Z,84.10
2018-09-21T23:04:26.122Z,84.20
2018-09-21T23:06:54.896Z,84.30
2018-09-21T23:09:24.063Z,84.30
2018-09-21T23:11:52.742Z,84.00
2018-09-21T23:14:22.370Z,83.80
2018-09-21T23:16:51.022Z,84.00
2018-09-21T23:19:19.775Z,84.10
2018-09-21T23:21:48.465Z,83.80
2018-09-21T23:24:17.243Z,84.10
2018-09-21T23:26:46.015Z,83.80
2018-09-21T23:29:15.385Z,83.70
2018-09-21T23:31:44.299Z,83.70
2018-09-21T23:34:12.994Z,84.20
2018-09-21T23:36:41.866Z,83.80
2018-09-21T23:39:11.658Z,83.70
2018-09-21T23:41:40.472Z,83.80
2018-09-21T23:44:09.872Z,83.70
2018-09-21T23:46:38.795Z,83.60
2018-09-21T23:49:08.426Z,84.00
2018-09-21T23:51:37.192Z,83.20
2018-09-21T23:54:06.330Z,83.10
2018-09-21T23:56:35.989Z,83.00
2018-09-21T23:59:04.708Z,82.50
